sensor_id;sensor_type;location;lat;lon;timestamp;pressure;altitude;pressure_sealevel;temperature;humidity
6464;BME280;3265;42.694;23.282;2022-08-19T00:01:19;94484.00;;;22.65;72.97
6464;BME280;3265;42.694;23.282;2022-08-19T00:03:46;94474.25;;;22.60;73.46
6464;BME280;3265;42.694;23.282;2022-08-19T00:06:13;94478.09;;;22.68;72.07
6464;BME280;3265;42.694;23.282;2022-08-19T00:08:40;94485.16;;;22.72;72.00
6464;BME280;3265;42.694;23.282;2022-08-19T00:11:07;94482.03;;;22.70;73.38
6464;BME280;3265;42.694;23.282;2022-08-19T00:13:34;94487.50;;;22.74;74.21
6464;BME280;3265;42.694;23.282;2022-08-19T00:16:01;94486.41;;;22.75;73.87
6464;BME280;3265;42.694;23.282;2022-08-19T00:18:30;94488.59;;;22.73;74.25
6464;BME280;3265;42.694;23.282;2022-08-19T00:20:58;94505.28;;;22.73;74.28
6464;BME280;3265;42.694;23.282;2022-08-19T00:23:25;94494.00;;;22.68;74.15
6464;BME280;3265;42.694;23.282;2022-08-19T00:25:52;94493.28;;;22.62;73.69
6464;BME280;3265;42.694;23.282;2022-08-19T00:28:19;94502.91;;;22.72;73.33
6464;BME280;3265;42.694;23.282;2022-08-19T00:30:47;94503.91;;;22.76;72.24
6464;BME280;3265;42.694;23.282;2022-08-19T00:33:13;94497.13;;;22.70;72.92
6464;BME280;3265;42.694;23.282;2022-08-19T00:35:43;94490.75;;;22.71;72.50
6464;BME280;3265;42.694;23.282;2022-08-19T00:38:10;94490.34;;;22.63;73.17
6464;BME280;3265;42.694;23.282;2022-08-19T00:40:36;94488.06;;;22.57;72.63
6464;BME280;3265;42.694;23.282;2022-08-19T00:43:08;94468.56;;;22.53;72.75
6464;BME280;3265;42.694;23.282;2022-08-19T00:45:35;94477.47;;;22.57;73.57
6464;BME280;3265;42.694;23.282;2022-08-19T00:48:03;94482.59;;;22.53;73.08
6464;BME280;3265;42.694;23.282;2022-08-19T00:50:30;94469.56;;;22.43;73.00
6464;BME280;3265;42.694;23.282;2022-08-19T00:52:59;94478.84;;;22.54;73.97
6464;BME280;3265;42.694;23.282;2022-08-19T00:55:30;94478.69;;;22.51;74.16
6464;BME280;3265;42.694;23.282;2022-08-19T00:58:01;94478.50;;;22.47;73.83
6464;BME280;3265;42.694;23.282;2022-08-19T01:00:30;94481.53;;;22.41;74.71
6464;BME280;3265;42.694;23.282;2022-08-19T01:02:58;94473.88;;;22.26;75.09
6464;BME280;3265;42.694;23.282;2022-08-19T01:05:27;94482.81;;;22.16;74.91
6464;BME280;3265;42.694;23.282;2022-08-19T01:07:56;94482.13;;;22.11;74.85
6464;BME280;3265;42.694;23.282;2022-08-19T01:10:29;94483.22;;;22.10;75.91
6464;BME280;3265;42.694;23.282;2022-08-19T01:12:58;94485.97;;;22.04;76.28
6464;BME280;3265;42.694;23.282;2022-08-19T01:15:29;94478.97;;;21.95;76.65
6464;BME280;3265;42.694;23.282;2022-08-19T01:17:59;94480.56;;;21.96;77.13
6464;BME280;3265;42.694;23.282;2022-08-19T01:20:28;94474.28;;;21.92;77.77
6464;BME280;3265;42.694;23.282;2022-08-19T01:22:58;94473.34;;;21.83;77.63
6464;BME280;3265;42.694;23.282;2022-08-19T01:25:29;94477.84;;;21.82;78.11
6464;BME280;3265;42.694;23.282;2022-08-19T01:27:56;94472.38;;;21.79;77.36
6464;BME280;3265;42.694;23.282;2022-08-19T01:30:27;94471.38;;;21.75;78.15
6464;BME280;3265;42.694;23.282;2022-08-19T01:35:23;94476.53;;;21.98;77.02
6464;BME280;3265;42.694;23.282;2022-08-19T01:37:52;94481.84;;;21.98;76.45
6464;BME280;3265;42.694;23.282;2022-08-19T01:40:22;94477.03;;;22.00;76.46
6464;BME280;3265;42.694;23.282;2022-08-19T01:42:51;94478.59;;;22.01;76.25
6464;BME280;3265;42.694;23.282;2022-08-19T01:45:19;94483.09;;;22.01;76.61
6464;BME280;3265;42.694;23.282;2022-08-19T01:47:47;94481.13;;;21.93;77.06
6464;BME280;3265;42.694;23.282;2022-08-19T01:50:15;94482.22;;;21.92;76.79
6464;BME280;3265;42.694;23.282;2022-08-19T01:52:43;94490.59;;;21.80;76.28
6464;BME280;3265;42.694;23.282;2022-08-19T01:55:12;94486.66;;;21.78;75.95
6464;BME280;3265;42.694;23.282;2022-08-19T01:57:43;94468.72;;;21.75;76.44
6464;BME280;3265;42.694;23.282;2022-08-19T02:00:14;94482.97;;;21.79;75.70
6464;BME280;3265;42.694;23.282;2022-08-19T02:02:42;94485.09;;;21.77;75.86
6464;BME280;3265;42.694;23.282;2022-08-19T02:05:09;94494.31;;;21.79;75.89
6464;BME280;3265;42.694;23.282;2022-08-19T02:07:36;94494.31;;;21.79;76.83
6464;BME280;3265;42.694;23.282;2022-08-19T02:10:04;94490.09;;;21.78;77.36
6464;BME280;3265;42.694;23.282;2022-08-19T02:12:31;94485.88;;;21.77;77.63
6464;BME280;3265;42.694;23.282;2022-08-19T02:15:00;94491.16;;;21.77;77.91
6464;BME280;3265;42.694;23.282;2022-08-19T02:17:27;94473.41;;;21.64;77.04
6464;BME280;3265;42.694;23.282;2022-08-19T02:19:55;94477.34;;;21.67;77.51
6464;BME280;3265;42.694;23.282;2022-08-19T02:22:22;94478.50;;;21.61;78.26
6464;BME280;3265;42.694;23.282;2022-08-19T02:24:49;94473.66;;;21.49;78.84
6464;BME280;3265;42.694;23.282;2022-08-19T02:27:16;94484.66;;;21.56;78.91
6464;BME280;3265;42.694;23.282;2022-08-19T02:29:43;94493.03;;;21.44;79.12
6464;BME280;3265;42.694;23.282;2022-08-19T02:32:13;94486.41;;;21.47;79.92
6464;BME280;3265;42.694;23.282;2022-08-19T02:34:40;94478.16;;;21.48;79.83
6464;BME280;3265;42.694;23.282;2022-08-19T02:37:07;94472.66;;;21.45;80.15
6464;BME280;3265;42.694;23.282;2022-08-19T02:39:54;94477.34;;;21.34;80.71
6464;BME280;3265;42.694;23.282;2022-08-19T02:42:20;94487.09;;;21.20;81.11
6464;BME280;3265;42.694;23.282;2022-08-19T02:44:47;94480.38;;;21.09;81.70
6464;BME280;3265;42.694;23.282;2022-08-19T02:47:15;94483.31;;;21.08;81.95
6464;BME280;3265;42.694;23.282;2022-08-19T02:49:44;94486.00;;;21.03;82.09
6464;BME280;3265;42.694;23.282;2022-08-19T02:52:11;94492.34;;;21.02;81.98
6464;BME280;3265;42.694;23.282;2022-08-19T02:54:38;94493.50;;;20.95;82.16
6464;BME280;3265;42.694;23.282;2022-08-19T02:57:05;94480.66;;;20.89;81.77
6464;BME280;3265;42.694;23.282;2022-08-19T02:59:33;94489.47;;;20.98;82.13
6464;BME280;3265;42.694;23.282;2022-08-19T03:02:00;94488.00;;;20.92;81.99
6464;BME280;3265;42.694;23.282;2022-08-19T03:04:29;94488.00;;;20.92;82.65
6464;BME280;3265;42.694;23.282;2022-08-19T03:06:56;94491.78;;;20.86;83.06
6464;BME280;3265;42.694;23.282;2022-08-19T03:09:22;94489.66;;;20.88;82.57
6464;BME280;3265;42.694;23.282;2022-08-19T03:11:49;94487.50;;;20.90;82.20
6464;BME280;3265;42.694;23.282;2022-08-19T03:14:16;94480.13;;;20.87;81.70
6464;BME280;3265;42.694;23.282;2022-08-19T03:16:45;94483.56;;;20.87;82.35
6464;BME280;3265;42.694;23.282;2022-08-19T03:19:13;94487.44;;;20.76;83.00
6464;BME280;3265;42.694;23.282;2022-08-19T03:21:44;94475.44;;;20.65;83.77
6464;BME280;3265;42.694;23.282;2022-08-19T03:24:11;94490.03;;;20.58;84.14
6464;BME280;3265;42.694;23.282;2022-08-19T03:26:39;94487.13;;;20.59;83.91
6464;BME280;3265;42.694;23.282;2022-08-19T03:29:07;94491.06;;;20.62;84.06
6464;BME280;3265;42.694;23.282;2022-08-19T03:31:37;94486.81;;;20.61;83.59
6464;BME280;3265;42.694;23.282;2022-08-19T03:34:04;94492.69;;;20.58;83.61
6464;BME280;3265;42.694;23.282;2022-08-19T03:36:31;94487.34;;;20.63;83.66
6464;BME280;3265;42.694;23.282;2022-08-19T03:39:01;94489.47;;;20.61;84.19
6464;BME280;3265;42.694;23.282;2022-08-19T03:41:30;94491.78;;;20.67;83.75
6464;BME280;3265;42.694;23.282;2022-08-19T03:43:58;94495.78;;;20.65;84.08
6464;BME280;3265;42.694;23.282;2022-08-19T03:46:27;94506.56;;;20.68;84.17
6464;BME280;3265;42.694;23.282;2022-08-19T03:48:56;94504.84;;;20.77;83.93
6464;BME280;3265;42.694;23.282;2022-08-19T03:51:28;94512.00;;;20.77;84.07
6464;BME280;3265;42.694;23.282;2022-08-19T03:53:57;94508.84;;;20.75;83.51
6464;BME280;3265;42.694;23.282;2022-08-19T03:56:26;94505.91;;;20.76;83.15
6464;BME280;3265;42.694;23.282;2022-08-19T03:58:54;94509.84;;;20.79;82.63
6464;BME280;3265;42.694;23.282;2022-08-19T04:01:24;94510.63;;;20.79;83.25
6464;BME280;3265;42.694;23.282;2022-08-19T04:03:52;94522.47;;;20.82;83.49
6464;BME280;3265;42.694;23.282;2022-08-19T04:06:21;94523.84;;;20.79;83.57
6464;BME280;3265;42.694;23.282;2022-08-19T04:08:50;94521.91;;;20.85;82.52
6464;BME280;3265;42.694;23.282;2022-08-19T04:11:22;94524.28;;;20.86;82.69
6464;BME280;3265;42.694;23.282;2022-08-19T04:13:53;94518.94;;;20.91;82.49
6464;BME280;3265;42.694;23.282;2022-08-19T04:16:21;94520.22;;;20.94;81.92
6464;BME280;3265;42.694;23.282;2022-08-19T04:18:49;94532.56;;;20.80;82.60
6464;BME280;3265;42.694;23.282;2022-08-19T04:21:17;94526.19;;;20.81;82.16
6464;BME280;3265;42.694;23.282;2022-08-19T04:23:45;94539.50;;;20.94;80.35
6464;BME280;3265;42.694;23.282;2022-08-19T04:26:13;94529.91;;;20.99;81.06
6464;BME280;3265;42.694;23.282;2022-08-19T04:28:41;94536.84;;;20.94;81.67
6464;BME280;3265;42.694;23.282;2022-08-19T04:31:13;94536.06;;;20.94;82.78
6464;BME280;3265;42.694;23.282;2022-08-19T04:33:40;94536.84;;;20.94;83.61
6464;BME280;3265;42.694;23.282;2022-08-19T04:36:08;94533.19;;;20.90;83.46
6464;BME280;3265;42.694;23.282;2022-08-19T04:38:41;94534.56;;;20.88;83.73
6464;BME280;3265;42.694;23.282;2022-08-19T04:41:08;94525.50;;;20.94;83.83
6464;BME280;3265;42.694;23.282;2022-08-19T04:43:52;94524.22;;;20.91;83.04
6464;BME280;3265;42.694;23.282;2022-08-19T04:46:21;94531.75;;;20.98;81.71
6464;BME280;3265;42.694;23.282;2022-08-19T04:48:47;94535.72;;;21.01;82.19
6464;BME280;3265;42.694;23.282;2022-08-19T04:51:14;94535.66;;;21.06;82.13
6464;BME280;3265;42.694;23.282;2022-08-19T04:53:42;94531.41;;;21.05;82.52
6464;BME280;3265;42.694;23.282;2022-08-19T04:56:11;94536.72;;;21.05;82.43
6464;BME280;3265;42.694;23.282;2022-08-19T04:58:41;94535.66;;;21.06;81.82
6464;BME280;3265;42.694;23.282;2022-08-19T05:01:09;94532.69;;;21.12;81.29
6464;BME280;3265;42.694;23.282;2022-08-19T05:03:39;94539.38;;;21.23;81.13
6464;BME280;3265;42.694;23.282;2022-08-19T05:06:07;94538.53;;;21.28;81.04
6464;BME280;3265;42.694;23.282;2022-08-19T05:08:37;94544.09;;;21.26;81.00
6464;BME280;3265;42.694;23.282;2022-08-19T05:11:09;94540.44;;;21.22;80.82
6464;BME280;3265;42.694;23.282;2022-08-19T05:13:37;94535.88;;;21.28;80.87
6464;BME280;3265;42.694;23.282;2022-08-19T05:16:04;94547.09;;;21.38;80.93
6464;BME280;3265;42.694;23.282;2022-08-19T05:18:31;94540.38;;;21.46;81.06
6464;BME280;3265;42.694;23.282;2022-08-19T05:21:18;94544.78;;;21.50;80.49
6464;BME280;3265;42.694;23.282;2022-08-19T05:24:03;94545.34;;;21.47;80.67
6464;BME280;3265;42.694;23.282;2022-08-19T05:26:33;94528.59;;;21.38;81.40
6464;BME280;3265;42.694;23.282;2022-08-19T05:29:00;94543.81;;;21.46;81.50
6464;BME280;3265;42.694;23.282;2022-08-19T05:31:27;94542.34;;;21.54;81.56
6464;BME280;3265;42.694;23.282;2022-08-19T05:33:54;94537.84;;;21.55;81.54
6464;BME280;3265;42.694;23.282;2022-08-19T05:36:22;94548.06;;;21.61;82.19
6464;BME280;3265;42.694;23.282;2022-08-19T05:38:49;94544.22;;;21.86;81.24
6464;BME280;3265;42.694;23.282;2022-08-19T05:41:18;94545.53;;;22.02;80.44
6464;BME280;3265;42.694;23.282;2022-08-19T05:43:46;94546.25;;;22.08;79.74
6464;BME280;3265;42.694;23.282;2022-08-19T05:46:16;94549.66;;;22.08;79.96
6464;BME280;3265;42.694;23.282;2022-08-19T05:48:44;94547.31;;;22.07;79.94
6464;BME280;3265;42.694;23.282;2022-08-19T05:51:11;94539.59;;;22.10;79.89
6464;BME280;3265;42.694;23.282;2022-08-19T05:53:40;94542.94;;;22.16;79.59
6464;BME280;3265;42.694;23.282;2022-08-19T05:56:11;94538.03;;;22.23;79.93
6464;BME280;3265;42.694;23.282;2022-08-19T05:58:39;94538.63;;;22.47;78.44
6464;BME280;3265;42.694;23.282;2022-08-19T06:01:10;94544.34;;;22.68;77.47
6464;BME280;3265;42.694;23.282;2022-08-19T06:03:38;94558.97;;;22.79;76.98
6464;BME280;3265;42.694;23.282;2022-08-19T06:06:06;94555.84;;;22.77;76.38
6464;BME280;3265;42.694;23.282;2022-08-19T06:08:33;94549.63;;;22.81;76.32
6464;BME280;3265;42.694;23.282;2022-08-19T06:11:19;94554.91;;;23.08;75.02
6464;BME280;3265;42.694;23.282;2022-08-19T06:13:47;94555.06;;;23.26;72.62
6464;BME280;3265;42.694;23.282;2022-08-19T06:16:17;94551.59;;;23.25;72.69
6464;BME280;3265;42.694;23.282;2022-08-19T06:18:48;94559.56;;;23.25;73.96
6464;BME280;3265;42.694;23.282;2022-08-19T06:21:17;94558.31;;;23.23;72.75
6464;BME280;3265;42.694;23.282;2022-08-19T06:23:44;94553.41;;;23.16;72.74
6464;BME280;3265;42.694;23.282;2022-08-19T06:26:13;94553.69;;;23.14;72.30
6464;BME280;3265;42.694;23.282;2022-08-19T06:28:42;94543.88;;;23.15;73.10
6464;BME280;3265;42.694;23.282;2022-08-19T06:31:12;94556.19;;;23.33;72.95
6464;BME280;3265;42.694;23.282;2022-08-19T06:33:39;94542.66;;;23.35;72.35
6464;BME280;3265;42.694;23.282;2022-08-19T06:36:15;94559.47;;;23.66;70.86
6464;BME280;3265;42.694;23.282;2022-08-19T06:38:42;94561.72;;;24.03;68.34
6464;BME280;3265;42.694;23.282;2022-08-19T06:41:09;94556.09;;;24.27;67.26
6464;BME280;3265;42.694;23.282;2022-08-19T06:43:36;94553.91;;;24.29;67.35
6464;BME280;3265;42.694;23.282;2022-08-19T06:46:09;94553.91;;;24.29;67.78
6464;BME280;3265;42.694;23.282;2022-08-19T06:48:37;94557.50;;;24.33;67.93
6464;BME280;3265;42.694;23.282;2022-08-19T06:51:04;94556.09;;;24.27;68.09
6464;BME280;3265;42.694;23.282;2022-08-19T06:53:31;94555.19;;;24.32;67.94
6464;BME280;3265;42.694;23.282;2022-08-19T06:55:58;94553.50;;;24.36;66.88
6464;BME280;3265;42.694;23.282;2022-08-19T06:58:27;94557.41;;;24.38;66.53
6464;BME280;3265;42.694;23.282;2022-08-19T07:00:58;94552.56;;;24.40;66.65
6464;BME280;3265;42.694;23.282;2022-08-19T07:03:29;94556.28;;;24.39;65.87
6464;BME280;3265;42.694;23.282;2022-08-19T07:05:57;94564.69;;;24.63;65.22
6464;BME280;3265;42.694;23.282;2022-08-19T07:08:24;94564.78;;;24.89;64.25
6464;BME280;3265;42.694;23.282;2022-08-19T07:10:52;94554.16;;;24.98;63.98
6464;BME280;3265;42.694;23.282;2022-08-19T07:13:20;94563.44;;;25.17;63.00
6464;BME280;3265;42.694;23.282;2022-08-19T07:15:48;94563.91;;;25.19;62.69
6464;BME280;3265;42.694;23.282;2022-08-19T07:18:17;94560.94;;;25.21;62.58
6464;BME280;3265;42.694;23.282;2022-08-19T07:20:45;94562.97;;;25.24;62.24
6464;BME280;3265;42.694;23.282;2022-08-19T07:23:12;94555.59;;;25.21;62.77
6464;BME280;3265;42.694;23.282;2022-08-19T07:25:39;94568.91;;;25.29;62.17
6464;BME280;3265;42.694;23.282;2022-08-19T07:28:06;94566.88;;;25.26;62.48
6464;BME280;3265;42.694;23.282;2022-08-19T07:30:37;94563.16;;;25.36;62.57
6464;BME280;3265;42.694;23.282;2022-08-19T07:33:06;94568.78;;;25.43;62.00
6464;BME280;3265;42.694;23.282;2022-08-19T07:35:33;94558.63;;;25.54;62.54
6464;BME280;3265;42.694;23.282;2022-08-19T07:38:02;94563.47;;;25.77;61.38
6464;BME280;3265;42.694;23.282;2022-08-19T07:40:30;94557.47;;;25.98;59.75
6464;BME280;3265;42.694;23.282;2022-08-19T07:42:57;94556.06;;;26.17;59.20
6464;BME280;3265;42.694;23.282;2022-08-19T07:45:24;94561.69;;;26.24;58.98
6464;BME280;3265;42.694;23.282;2022-08-19T07:47:51;94560.44;;;26.22;58.59
6464;BME280;3265;42.694;23.282;2022-08-19T07:50:19;94561.06;;;26.19;58.12
6464;BME280;3265;42.694;23.282;2022-08-19T07:52:47;94550.53;;;26.31;58.86
6464;BME280;3265;42.694;23.282;2022-08-19T07:55:18;94554.13;;;26.35;57.47
6464;BME280;3265;42.694;23.282;2022-08-19T07:57:45;94564.28;;;26.41;57.19
6464;BME280;3265;42.694;23.282;2022-08-19T08:00:13;94558.81;;;26.38;56.90
6464;BME280;3265;42.694;23.282;2022-08-19T08:02:40;94563.66;;;26.44;58.23
6464;BME280;3265;42.694;23.282;2022-08-19T08:05:08;94563.88;;;26.69;56.71
6464;BME280;3265;42.694;23.282;2022-08-19T08:07:52;94561.66;;;26.79;55.13
6464;BME280;3265;42.694;23.282;2022-08-19T08:10:53;94567.44;;;26.73;56.97
6464;BME280;3265;42.694;23.282;2022-08-19T08:13:20;94559.63;;;26.68;56.53
6464;BME280;3265;42.694;23.282;2022-08-19T08:15:47;94558.06;;;26.67;55.66
6464;BME280;3265;42.694;23.282;2022-08-19T08:18:13;94549.94;;;26.63;55.66
6464;BME280;3265;42.694;23.282;2022-08-19T08:20:40;94550.06;;;26.75;55.05
6464;BME280;3265;42.694;23.282;2022-08-19T08:23:07;94551.28;;;26.78;55.09
6464;BME280;3265;42.694;23.282;2022-08-19T08:25:53;94544.72;;;26.75;54.79
6464;BME280;3265;42.694;23.282;2022-08-19T08:28:20;94544.84;;;26.79;56.56
6464;BME280;3265;42.694;23.282;2022-08-19T08:30:48;94542.63;;;26.89;56.71
6464;BME280;3265;42.694;23.282;2022-08-19T08:33:18;94544.41;;;27.27;55.81
6464;BME280;3265;42.694;23.282;2022-08-19T08:35:45;94544.25;;;27.52;53.92
6464;BME280;3265;42.694;23.282;2022-08-19T08:38:12;94537.31;;;27.72;52.04
6464;BME280;3265;42.694;23.282;2022-08-19T08:40:46;94545.25;;;27.81;50.88
6464;BME280;3265;42.694;23.282;2022-08-19T08:43:23;94546.28;;;27.88;49.45
6464;BME280;3265;42.694;23.282;2022-08-19T08:45:57;94538.75;;;28.02;49.04
6464;BME280;3265;42.694;23.282;2022-08-19T08:48:35;94540.59;;;28.10;50.05
6464;BME280;3265;42.694;23.282;2022-08-19T08:51:09;94534.16;;;28.24;49.72
6464;BME280;3265;42.694;23.282;2022-08-19T08:53:36;94534.19;;;28.36;49.98
6464;BME280;3265;42.694;23.282;2022-08-19T08:56:06;94533.41;;;28.47;48.74
6464;BME280;3265;42.694;23.282;2022-08-19T08:58:41;94528.75;;;28.56;47.88
6464;BME280;3265;42.694;23.282;2022-08-19T09:01:28;94531.47;;;28.68;47.35
6464;BME280;3265;42.694;23.282;2022-08-19T09:04:58;94517.97;;;28.77;47.33
6464;BME280;3265;42.694;23.282;2022-08-19T09:07:25;94515.59;;;29.00;48.71
6464;BME280;3265;42.694;23.282;2022-08-19T09:10:02;94522.16;;;29.14;48.09
6464;BME280;3265;42.694;23.282;2022-08-19T09:12:36;94518.56;;;29.35;46.63
6464;BME280;3265;42.694;23.282;2022-08-19T09:15:09;94522.97;;;29.55;44.87
6464;BME280;3265;42.694;23.282;2022-08-19T09:17:47;94524.81;;;29.66;43.27
6464;BME280;3265;42.694;23.282;2022-08-19T09:20:18;94518.16;;;29.76;42.19
6464;BME280;3265;42.694;23.282;2022-08-19T09:22:46;94515.59;;;29.79;42.50
6464;BME280;3265;42.694;23.282;2022-08-19T09:25:18;94521.19;;;29.87;42.81
6464;BME280;3265;42.694;23.282;2022-08-19T09:27:53;94520.69;;;29.97;41.73
6464;BME280;3265;42.694;23.282;2022-08-19T09:30:25;94514.72;;;30.03;37.94
6464;BME280;3265;42.694;23.282;2022-08-19T09:32:52;94505.22;;;30.06;40.22
6464;BME280;3265;42.694;23.282;2022-08-19T09:35:21;94510.94;;;30.04;41.78
6464;BME280;3265;42.694;23.282;2022-08-19T09:37:49;94505.84;;;30.15;39.97
6464;BME280;3265;42.694;23.282;2022-08-19T09:40:17;94503.94;;;30.31;39.71
6464;BME280;3265;42.694;23.282;2022-08-19T09:42:44;94511.66;;;30.48;37.54
6464;BME280;3265;42.694;23.282;2022-08-19T09:45:14;94509.50;;;30.69;36.84
6464;BME280;3265;42.694;23.282;2022-08-19T09:47:43;94514.34;;;30.95;37.52
6464;BME280;3265;42.694;23.282;2022-08-19T09:50:11;94510.13;;;31.13;37.27
6464;BME280;3265;42.694;23.282;2022-08-19T09:52:39;94508.66;;;31.16;39.05
6464;BME280;3265;42.694;23.282;2022-08-19T09:55:09;94503.22;;;31.31;37.05
6464;BME280;3265;42.694;23.282;2022-08-19T09:57:36;94509.00;;;31.49;35.70
6464;BME280;3265;42.694;23.282;2022-08-19T10:00:06;94504.16;;;31.39;36.55
6464;BME280;3265;42.694;23.282;2022-08-19T10:02:34;94499.50;;;31.55;36.29
6464;BME280;3265;42.694;23.282;2022-08-19T10:05:04;94496.28;;;31.65;36.66
6464;BME280;3265;42.694;23.282;2022-08-19T10:07:48;94494.25;;;31.81;36.16
6464;BME280;3265;42.694;23.282;2022-08-19T10:10:15;94497.69;;;32.01;33.67
6464;BME280;3265;42.694;23.282;2022-08-19T10:12:42;94497.94;;;32.12;34.46
6464;BME280;3265;42.694;23.282;2022-08-19T10:15:11;94491.72;;;32.30;35.02
6464;BME280;3265;42.694;23.282;2022-08-19T10:17:38;94489.09;;;32.56;34.17
6464;BME280;3265;42.694;23.282;2022-08-19T10:20:07;94482.06;;;32.75;34.55
6464;BME280;3265;42.694;23.282;2022-08-19T10:22:34;94495.16;;;33.02;33.42
6464;BME280;3265;42.694;23.282;2022-08-19T10:25:04;94490.91;;;33.28;32.41
6464;BME280;3265;42.694;23.282;2022-08-19T10:27:31;94477.66;;;33.45;31.96
6464;BME280;3265;42.694;23.282;2022-08-19T10:29:58;94480.97;;;33.61;31.97
6464;BME280;3265;42.694;23.282;2022-08-19T10:32:25;94484.22;;;33.78;29.81
6464;BME280;3265;42.694;23.282;2022-08-19T10:34:53;94478.38;;;33.72;30.41
6464;BME280;3265;42.694;23.282;2022-08-19T10:37:23;94478.78;;;33.74;31.13
6464;BME280;3265;42.694;23.282;2022-08-19T10:39:50;94465.06;;;33.86;30.26
6464;BME280;3265;42.694;23.282;2022-08-19T10:42:17;94476.72;;;33.94;30.87
6464;BME280;3265;42.694;23.282;2022-08-19T10:44:44;94480.97;;;33.98;31.83
6464;BME280;3265;42.694;23.282;2022-08-19T10:47:11;94469.75;;;33.93;32.35
6464;BME280;3265;42.694;23.282;2022-08-19T10:49:38;94468.91;;;33.85;32.03
6464;BME280;3265;42.694;23.282;2022-08-19T10:52:19;94469.16;;;33.73;32.65
6464;BME280;3265;42.694;23.282;2022-08-19T10:55:06;94471.13;;;34.13;33.04
6464;BME280;3265;42.694;23.282;2022-08-19T10:57:50;94466.38;;;34.43;31.91
6464;BME280;3265;42.694;23.282;2022-08-19T11:00:18;94468.19;;;34.76;31.93
6464;BME280;3265;42.694;23.282;2022-08-19T11:02:45;94472.25;;;35.07;30.60
6464;BME280;3265;42.694;23.282;2022-08-19T11:05:12;94468.31;;;34.94;29.76
6464;BME280;3265;42.694;23.282;2022-08-19T11:07:40;94469.13;;;34.98;29.93
6464;BME280;3265;42.694;23.282;2022-08-19T11:10:11;94464.72;;;34.75;31.23
6464;BME280;3265;42.694;23.282;2022-08-19T11:12:39;94464.97;;;35.11;31.41
6464;BME280;3265;42.694;23.282;2022-08-19T11:15:08;94460.88;;;35.42;29.71
6464;BME280;3265;42.694;23.282;2022-08-19T11:17:36;94461.31;;;35.54;28.42
6464;BME280;3265;42.694;23.282;2022-08-19T11:20:06;94464.09;;;35.72;28.67
6464;BME280;3265;42.694;23.282;2022-08-19T11:22:34;94459.13;;;36.02;28.63
6464;BME280;3265;42.694;23.282;2022-08-19T11:25:01;94461.91;;;36.09;29.91
6464;BME280;3265;42.694;23.282;2022-08-19T11:27:30;94462.69;;;36.20;29.64
6464;BME280;3265;42.694;23.282;2022-08-19T11:29:57;94461.91;;;36.34;29.05
6464;BME280;3265;42.694;23.282;2022-08-19T11:32:24;94449.94;;;36.63;28.38
6464;BME280;3265;42.694;23.282;2022-08-19T11:34:51;94455.34;;;36.63;28.42
6464;BME280;3265;42.694;23.282;2022-08-19T11:37:17;94452.22;;;36.22;29.13
6464;BME280;3265;42.694;23.282;2022-08-19T11:39:45;94450.72;;;36.25;28.65
6464;BME280;3265;42.694;23.282;2022-08-19T11:42:11;94457.25;;;36.20;28.67
6464;BME280;3265;42.694;23.282;2022-08-19T11:44:57;94446.44;;;36.24;29.25
6464;BME280;3265;42.694;23.282;2022-08-19T11:47:23;94453.41;;;36.35;28.22
6464;BME280;3265;42.694;23.282;2022-08-19T11:49:51;94444.91;;;36.69;27.56
6464;BME280;3265;42.694;23.282;2022-08-19T11:52:18;94444.09;;;36.93;26.88
6464;BME280;3265;42.694;23.282;2022-08-19T11:54:45;94442.47;;;37.27;26.96
6464;BME280;3265;42.694;23.282;2022-08-19T11:57:12;94440.13;;;37.29;27.02
6464;BME280;3265;42.694;23.282;2022-08-19T11:59:42;94441.28;;;37.39;26.00
6464;BME280;3265;42.694;23.282;2022-08-19T12:02:10;94434.03;;;37.08;26.69
6464;BME280;3265;42.694;23.282;2022-08-19T12:04:37;94427.41;;;37.12;27.44
6464;BME280;3265;42.694;23.282;2022-08-19T12:07:03;94417.69;;;37.29;27.00
6464;BME280;3265;42.694;23.282;2022-08-19T12:09:30;94416.91;;;37.28;27.78
6464;BME280;3265;42.694;23.282;2022-08-19T12:11:59;94413.78;;;37.37;27.41
6464;BME280;3265;42.694;23.282;2022-08-19T12:14:27;94411.59;;;36.82;27.68
6464;BME280;3265;42.694;23.282;2022-08-19T12:16:56;94404.63;;;36.99;27.48
6464;BME280;3265;42.694;23.282;2022-08-19T12:19:24;94398.38;;;36.95;27.21
6464;BME280;3265;42.694;23.282;2022-08-19T12:21:51;94399.22;;;36.11;28.30
6464;BME280;3265;42.694;23.282;2022-08-19T12:24:20;94400.41;;;36.20;28.40
6464;BME280;3265;42.694;23.282;2022-08-19T12:26:49;94395.31;;;35.73;29.12
6464;BME280;3265;42.694;23.282;2022-08-19T12:29:16;94391.31;;;35.39;29.63
6464;BME280;3265;42.694;23.282;2022-08-19T12:31:43;94387.19;;;34.83;29.86
6464;BME280;3265;42.694;23.282;2022-08-19T12:34:10;94392.25;;;35.92;28.63
6464;BME280;3265;42.694;23.282;2022-08-19T12:36:39;94389.94;;;36.65;28.04
6464;BME280;3265;42.694;23.282;2022-08-19T12:39:06;94384.84;;;37.06;27.31
6464;BME280;3265;42.694;23.282;2022-08-19T12:41:33;94391.00;;;37.06;27.21
6464;BME280;3265;42.694;23.282;2022-08-19T12:44:00;94387.75;;;37.54;26.79
6464;BME280;3265;42.694;23.282;2022-08-19T12:46:27;94388.34;;;37.82;26.08
6464;BME280;3265;42.694;23.282;2022-08-19T12:48:54;94375.91;;;37.92;26.44
6464;BME280;3265;42.694;23.282;2022-08-19T12:51:21;94377.84;;;37.95;26.00
6464;BME280;3265;42.694;23.282;2022-08-19T12:53:49;94378.22;;;37.90;26.06
6464;BME280;3265;42.694;23.282;2022-08-19T12:56:16;94379.34;;;37.99;25.35
6464;BME280;3265;42.694;23.282;2022-08-19T12:58:44;94371.75;;;38.25;24.65
6464;BME280;3265;42.694;23.282;2022-08-19T13:01:14;94373.34;;;38.22;25.24
6464;BME280;3265;42.694;23.282;2022-08-19T13:03:44;94377.59;;;38.27;24.61
6464;BME280;3265;42.694;23.282;2022-08-19T13:06:12;94372.53;;;38.25;24.59
6464;BME280;3265;42.694;23.282;2022-08-19T13:08:39;94371.75;;;38.25;25.12
6464;BME280;3265;42.694;23.282;2022-08-19T13:11:15;94364.94;;;38.54;24.92
6464;BME280;3265;42.694;23.282;2022-08-19T13:13:49;94361.97;;;38.38;24.33
6464;BME280;3265;42.694;23.282;2022-08-19T13:16:56;94364.63;;;37.97;25.20
6464;BME280;3265;42.694;23.282;2022-08-19T13:19:13;94359.38;;;37.65;25.89
6464;BME280;3265;42.694;23.282;2022-08-19T13:21:40;94357.78;;;37.71;25.74
6464;BME280;3265;42.694;23.282;2022-08-19T13:24:06;94353.28;;;38.09;25.78